createdAt,value
2023-02-19T00:03:53.368Z,12.05
2023-02-19T00:08:56.571Z,12.05
2023-02-19T00:14:00.966Z,11.89
2023-02-19T00:19:07.095Z,11.94
2023-02-19T00:24:13.700Z,11.88
2023-02-19T00:29:20.754Z,11.80
2023-02-19T00:34:26.134Z,11.87
2023-02-19T00:39:28.994Z,11.89
2023-02-19T00:44:31.957Z,11.78
2023-02-19T00:49:34.723Z,11.89
2023-02-19T00:54:37.146Z,11.86
2023-02-19T00:59:39.680Z,11.78
2023-02-19T01:04:42.300Z,11.70
2023-02-19T01:09:44.345Z,11.52
2023-02-19T01:14:46.963Z,11.57
2023-02-19T01:19:49.240Z,11.58
2023-02-19T01:24:51.341Z,11.49
2023-02-19T01:29:53.443Z,11.52
2023-02-19T01:34:55.482Z,11.51
2023-02-19T01:39:58.076Z,11.68
2023-02-19T01:45:38.715Z,11.66
2023-02-19T01:50:47.569Z,11.50
2023-02-19T01:55:53.817Z,11.50
2023-02-19T02:00:56.563Z,11.55
2023-02-19T02:06:29.384Z,11.49
2023-02-19T02:11:32.573Z,11.39
2023-02-19T02:17:01.402Z,11.41
2023-02-19T02:22:38.033Z,11.18
2023-02-19T02:27:55.367Z,11.03
2023-02-19T02:33:12.749Z,11.10
2023-02-19T02:38:18.269Z,10.86
2023-02-19T02:43:20.831Z,10.85
2023-02-19T02:48:35.395Z,10.77
2023-02-19T02:54:10.352Z,10.81
2023-02-19T02:59:16.384Z,10.84
2023-02-19T03:05:04.056Z,10.96
2023-02-19T03:10:12.390Z,11.03
2023-02-19T03:15:35.651Z,10.92
2023-02-19T03:20:46.613Z,10.51
2023-02-19T03:26:05.425Z,10.18
2023-02-19T03:31:22.808Z,9.95
2023-02-19T03:36:30.609Z,9.92
2023-02-19T03:41:48.259Z,10.07
2023-02-19T03:47:29.677Z,9.86
2023-02-19T03:52:47.353Z,9.92
2023-02-19T03:58:03.918Z,9.93
2023-02-19T04:03:41.589Z,9.87
2023-02-19T04:08:49.478Z,9.92
2023-02-19T04:14:18.453Z,9.91
2023-02-19T04:19:24.590Z,9.96
2023-02-19T04:24:37.088Z,9.94
2023-02-19T04:29:39.609Z,9.97
2023-02-19T04:34:42.032Z,9.91
2023-02-19T04:39:44.539Z,9.90
2023-02-19T04:44:46.957Z,10.06
2023-02-19T04:49:49.430Z,9.94
2023-02-19T04:54:51.968Z,9.89
2023-02-19T04:59:54.408Z,9.95
2023-02-19T05:04:57.110Z,10.18
2023-02-19T05:10:00.016Z,10.17
2023-02-19T05:15:02.658Z,10.21
2023-02-19T05:20:05.577Z,10.44
2023-02-19T05:25:08.405Z,10.56
2023-02-19T05:30:11.793Z,10.73
2023-02-19T05:35:14.402Z,10.74
2023-02-19T05:40:17.125Z,10.41
2023-02-19T05:45:19.636Z,10.65
2023-02-19T05:50:22.121Z,10.89
2023-02-19T05:55:24.655Z,11.15
2023-02-19T06:00:27.976Z,11.33
2023-02-19T06:05:30.907Z,11.21
2023-02-19T06:10:33.429Z,11.14
2023-02-19T06:15:36.850Z,10.94
2023-02-19T06:20:39.402Z,10.55
2023-02-19T06:25:42.271Z,10.38
2023-02-19T06:30:44.693Z,10.25
2023-02-19T06:35:47.098Z,9.73
2023-02-19T06:40:49.803Z,9.53
2023-02-19T06:45:52.229Z,9.60
2023-02-19T06:50:54.858Z,9.54
2023-02-19T06:55:58.482Z,9.63
2023-02-19T07:01:01.548Z,9.78
2023-02-19T07:06:04.511Z,9.75
2023-02-19T07:11:07.172Z,9.61
2023-02-19T07:16:11.737Z,9.77
2023-02-19T07:21:15.984Z,9.68
2023-02-19T07:26:19.832Z,9.68
2023-02-19T07:31:24.739Z,9.47
2023-02-19T07:36:27.010Z,9.53
2023-02-19T07:41:29.310Z,9.59
2023-02-19T07:46:33.520Z,9.63
2023-02-19T07:51:35.922Z,9.70
2023-02-19T07:56:37.967Z,9.93
2023-02-19T08:01:58.651Z,10.00
2023-02-19T08:07:01.122Z,9.95
2023-02-19T08:12:21.893Z,10.01
2023-02-19T08:17:24.083Z,10.16
2023-02-19T08:22:26.160Z,10.35
2023-02-19T08:27:28.477Z,10.37
2023-02-19T08:32:30.992Z,10.19
2023-02-19T08:37:33.223Z,10.45
2023-02-19T08:42:35.255Z,10.30
2023-02-19T08:47:38.726Z,10.35
2023-02-19T08:52:40.843Z,10.18
2023-02-19T08:57:43.016Z,10.15
2023-02-19T09:02:45.290Z,10.30
2023-02-19T09:07:47.511Z,10.37
2023-02-19T09:12:49.717Z,10.24
2023-02-19T09:17:53.425Z,10.31
2023-02-19T09:22:59.700Z,10.33
2023-02-19T09:28:02.003Z,10.58
2023-02-19T09:33:06.209Z,10.39
2023-02-19T09:38:10.591Z,10.48
2023-02-19T09:43:21.373Z,10.64
2023-02-19T09:48:23.640Z,10.86
2023-02-19T09:53:41.929Z,10.96
2023-02-19T09:58:50.978Z,10.86
2023-02-19T10:03:53.049Z,11.16
2023-02-19T10:09:11.640Z,12.12
2023-02-19T10:14:30.028Z,12.29
2023-02-19T10:19:34.732Z,11.49
2023-02-19T10:24:38.604Z,11.38
2023-02-19T10:29:44.875Z,12.28
2023-02-19T10:34:48.095Z,12.32
2023-02-19T10:39:51.381Z,12.14
2023-02-19T10:44:58.799Z,12.04
2023-02-19T10:50:04.510Z,13.40
2023-02-19T10:55:16.114Z,13.05
2023-02-19T11:00:22.912Z,12.97
2023-02-19T11:05:25.586Z,12.63
2023-02-19T11:10:42.574Z,12.08
2023-02-19T11:15:52.014Z,11.77
2023-02-19T11:20:59.261Z,13.11
2023-02-19T11:26:06.489Z,13.66
2023-02-19T11:31:34.306Z,12.51
2023-02-19T11:36:38.422Z,12.27
2023-02-19T11:41:50.013Z,11.82
2023-02-19T11:47:04.463Z,11.45
2023-02-19T11:52:19.186Z,11.97
2023-02-19T11:57:28.345Z,12.63
2023-02-19T12:02:48.397Z,12.51
2023-02-19T12:08:26.525Z,12.19
2023-02-19T12:13:59.552Z,11.68
2023-02-19T12:19:06.033Z,11.55
2023-02-19T12:24:20.559Z,12.19
2023-02-19T12:29:49.344Z,12.10
2023-02-19T12:34:58.085Z,14.43
2023-02-19T12:40:19.840Z,13.09
2023-02-19T12:45:35.824Z,14.14
2023-02-19T12:50:40.790Z,13.04
2023-02-19T12:55:46.640Z,13.49
2023-02-19T13:00:53.999Z,12.90
2023-02-19T13:06:03.738Z,14.19
2023-02-19T13:11:36.351Z,14.49
2023-02-19T13:16:44.429Z,12.93
2023-02-19T13:22:11.703Z,12.32
2023-02-19T13:27:33.270Z,12.78
2023-02-19T13:33:00.877Z,13.05
2023-02-19T13:43:23.253Z,12.50
2023-02-19T13:48:33.919Z,12.09
2023-02-19T13:53:52.051Z,12.07
2023-02-19T13:59:21.780Z,12.25
2023-02-19T14:04:50.425Z,12.54
2023-02-19T14:09:53.496Z,13.34
2023-02-19T14:14:57.192Z,12.69
2023-02-19T14:20:10.076Z,11.96
2023-02-19T14:25:31.269Z,11.97
2023-02-19T14:30:40.689Z,12.27
2023-02-19T14:35:45.984Z,13.53
2023-02-19T14:40:49.834Z,14.37
2023-02-19T14:46:08.443Z,14.65
2023-02-19T14:51:29.979Z,14.10
2023-02-19T14:56:35.869Z,14.71
2023-02-19T15:01:39.966Z,14.48
2023-02-19T15:06:43.226Z,13.72
2023-02-19T15:11:46.685Z,13.47
2023-02-19T15:16:52.256Z,13.83
2023-02-19T15:21:55.687Z,13.87
2023-02-19T15:26:58.487Z,14.27
2023-02-19T15:32:02.748Z,13.75
2023-02-19T15:37:11.160Z,13.33
2023-02-19T15:42:21.386Z,13.05
2023-02-19T15:47:35.125Z,12.55
2023-02-19T15:52:40.703Z,11.78
2023-02-19T15:57:49.099Z,11.72
2023-02-19T16:02:51.939Z,11.57
2023-02-19T16:08:18.978Z,11.48
2023-02-19T16:13:25.496Z,11.29
2023-02-19T16:18:28.387Z,11.15
2023-02-19T16:23:31.740Z,11.35
2023-02-19T16:28:41.046Z,11.33
2023-02-19T16:33:48.759Z,10.76
2023-02-19T16:39:07.486Z,10.72
2023-02-19T16:44:24.901Z,10.59
2023-02-19T16:49:27.453Z,10.45
2023-02-19T16:54:29.999Z,10.27
2023-02-19T16:59:32.813Z,10.43
2023-02-19T17:04:35.880Z,10.36
2023-02-19T17:09:38.489Z,10.12
2023-02-19T17:14:41.158Z,10.33
2023-02-19T17:19:43.237Z,10.58
2023-02-19T17:24:46.148Z,10.74
2023-02-19T17:29:48.222Z,10.90
2023-02-19T17:34:50.394Z,11.11
2023-02-19T17:39:52.717Z,11.13
2023-02-19T17:44:55.033Z,11.10
2023-02-19T17:49:57.772Z,10.62
2023-02-19T17:55:00.004Z,10.40
2023-02-19T18:00:02.816Z,10.18
2023-02-19T18:05:14.933Z,10.14
2023-02-19T18:10:20.341Z,10.07
2023-02-19T18:15:27.111Z,10.36
2023-02-19T18:20:31.352Z,10.21
2023-02-19T18:25:33.669Z,10.19
2023-02-19T18:30:35.907Z,10.01
2023-02-19T18:35:38.585Z,10.00
2023-02-19T18:40:41.697Z,9.99
2023-02-19T18:45:45.513Z,10.06
2023-02-19T18:50:47.896Z,10.18
2023-02-19T18:55:51.478Z,10.31
2023-02-19T19:00:53.564Z,10.27
2023-02-19T19:05:55.616Z,10.42
2023-02-19T19:10:57.693Z,10.61
2023-02-19T19:16:00.042Z,10.76
2023-02-19T19:21:03.582Z,10.58
2023-02-19T19:26:07.151Z,10.63
2023-02-19T19:31:09.975Z,10.15
2023-02-19T19:36:12.512Z,10.12
2023-02-19T19:41:17.710Z,10.15
2023-02-19T19:46:20.762Z,9.95
2023-02-19T19:51:23.047Z,9.95
2023-02-19T19:56:25.301Z,10.00
2023-02-19T20:01:27.546Z,9.95
2023-02-19T20:06:31.835Z,9.93
2023-02-19T20:11:34.461Z,9.91
2023-02-19T20:16:36.769Z,9.82
2023-02-19T20:21:39.229Z,9.79
2023-02-19T20:26:41.639Z,9.79
2023-02-19T20:31:50.212Z,9.76
2023-02-19T20:36:52.554Z,9.67
2023-02-19T20:41:54.771Z,9.67
2023-02-19T20:46:59.954Z,9.69
2023-02-19T20:52:07.490Z,9.60
2023-02-19T20:57:10.717Z,9.59
2023-02-19T21:02:23.256Z,9.56
2023-02-19T21:07:26.529Z,9.50
2023-02-19T21:12:28.632Z,9.40
2023-02-19T21:17:30.776Z,9.43
2023-02-19T21:22:33.176Z,9.42
2023-02-19T21:27:36.918Z,9.38
2023-02-19T21:32:39.344Z,9.33
2023-02-19T21:37:44.022Z,9.27
2023-02-19T21:42:46.726Z,9.25
2023-02-19T21:47:52.206Z,9.36
2023-02-19T21:52:55.500Z,9.29
2023-02-19T21:57:57.910Z,9.21
2023-02-19T22:03:00.228Z,9.30
2023-02-19T22:08:02.859Z,9.32
2023-02-19T22:13:06.832Z,9.27
2023-02-19T22:18:09.337Z,9.43
2023-02-19T22:23:11.379Z,9.23
2023-02-19T22:28:13.791Z,9.16
2023-02-19T22:33:15.967Z,9.27
2023-02-19T22:38:18.058Z,9.29
2023-02-19T22:43:20.392Z,9.45
2023-02-19T22:48:30.109Z,9.46
2023-02-19T22:53:32.991Z,9.52
2023-02-19T22:58:36.649Z,9.36
2023-02-19T23:03:57.066Z,9.37
2023-02-19T23:09:10.369Z,9.35
2023-02-19T23:14:17.577Z,9.36
2023-02-19T23:19:19.766Z,9.25
2023-02-19T23:24:22.343Z,9.31
2023-02-19T23:29:27.197Z,9.23
2023-02-19T23:34:29.395Z,9.23
2023-02-19T23:39:31.780Z,9.23
2023-02-19T23:44:34.406Z,9.18
2023-02-19T23:49:36.482Z,9.20
2023-02-19T23:54:39.434Z,9.15
2023-02-19T23:59:41.722Z,9.10
